Time;durP1;ratioP1;P1;durP2;ratioP2;P2;SDS_P1;SDS_P2;PMS_P1;PMS_P2;Temp;Humidity;BMP_temperature;BMP_pressure;BME280_temperature;BME280_humidity;BME280_pressure;Samples;Min_cycle;Max_cycle;Signal;HPM_P1;HPM_P2
2022/09/05 00:00:18;;;;;;;3.28;3.00;;;17.80;99.90;;;;;;5032766;28;20450;-74
2022/09/05 00:03:24;;;;;;;2.90;2.60;;;17.70;99.90;;;;;;5038041;28;20415;-74
2022/09/05 00:06:09;;;;;;;3.20;2.90;;;17.60;99.90;;;;;;5040789;28;20961;-74
2022/09/05 00:08:38;;;;;;;3.03;2.70;;;17.60;99.90;;;;;;5036748;28;20459;-74
2022/09/05 00:11:14;;;;;;;3.50;3.20;;;17.60;99.90;;;;;;5028447;28;20419;-74
2022/09/05 00:13:46;;;;;;;3.30;3.00;;;17.60;99.90;;;;;;5042358;28;20401;-74
2022/09/05 00:16:41;;;;;;;3.05;2.75;;;17.60;99.90;;;;;;5045015;28;20815;-74
2022/09/05 00:19:31;;;;;;;3.20;2.90;;;17.60;99.90;;;;;;5037770;28;20407;-74
2022/09/05 00:22:22;;;;;;;2.83;2.63;;;17.60;99.90;;;;;;5038172;28;20521;-74
2022/09/05 00:24:58;;;;;;;4.00;2.80;;;17.50;99.90;;;;;;5021929;28;20445;-74
2022/09/05 00:27:41;;;;;;;3.60;2.77;;;17.50;99.90;;;;;;5022895;28;20829;-74
2022/09/05 00:30:16;;;;;;;3.15;2.60;;;17.50;99.90;;;;;;5042671;28;20392;-74
2022/09/05 00:33:13;;;;;;;3.53;2.70;;;17.40;99.90;;;;;;5036428;28;20955;-74
2022/09/05 00:36:00;;;;;;;3.83;2.70;;;17.40;99.90;;;;;;5037751;28;20441;-74
2022/09/05 00:38:28;;;;;;;3.35;2.90;;;17.50;99.90;;;;;;5039268;28;20513;-74
2022/09/05 00:41:03;;;;;;;3.13;2.85;;;17.50;99.90;;;;;;5038837;28;20870;-74
2022/09/05 00:43:33;;;;;;;3.80;2.90;;;17.60;99.90;;;;;;5034742;28;20402;-74
2022/09/05 00:46:12;;;;;;;2.95;2.75;;;17.50;99.90;;;;;;5034816;28;20403;-74
2022/09/05 00:49:05;;;;;;;3.00;2.80;;;17.40;99.90;;;;;;5033895;28;20410;-74
2022/09/05 00:52:14;;;;;;;3.22;3.00;;;17.40;99.90;;;;;;5037630;28;20476;-74
2022/09/05 00:55:09;;;;;;;3.60;3.30;;;17.40;99.90;;;;;;4942212;29;20421;-74
2022/09/05 00:58:28;;;;;;;3.28;2.80;;;17.40;99.90;;;;;;4941977;29;20415;-74
2022/09/05 01:00:57;;;;;;;3.15;2.90;;;17.40;99.90;;;;;;4928381;29;20494;-74
2022/09/05 01:03:42;;;;;;;2.90;2.70;;;17.40;99.90;;;;;;5033402;28;20412;-74
2022/09/05 01:06:36;;;;;;;4.72;3.13;;;17.50;99.90;;;;;;5040606;28;20414;-74
2022/09/05 01:09:21;;;;;;;3.20;2.90;;;17.40;99.90;;;;;;5023939;28;20401;-75
2022/09/05 01:12:01;;;;;;;3.78;2.60;;;17.30;99.90;;;;;;5048686;28;20416;-75
2022/09/05 01:14:49;;;;;;;3.20;3.00;;;17.40;99.90;;;;;;5040378;28;20821;-75
2022/09/05 01:17:34;;;;;;;3.13;2.83;;;17.30;99.90;;;;;;5041328;28;20469;-75
2022/09/05 01:20:28;;;;;;;3.30;3.00;;;17.40;99.90;;;;;;5037363;28;20461;-75
2022/09/05 01:23:02;;;;;;;2.92;2.72;;;17.20;99.90;;;;;;5033067;28;20886;-75
2022/09/05 01:25:39;;;;;;;3.30;3.00;;;17.30;99.90;;;;;;5049015;28;20451;-75
2022/09/05 01:28:43;;;;;;;2.70;2.50;;;17.20;99.90;;;;;;5039081;28;20401;-75
2022/09/05 01:31:21;;;;;;;3.20;2.90;;;17.10;99.90;;;;;;4947612;29;20441;-75
2022/09/05 01:33:54;;;;;;;4.95;3.10;;;17.10;99.90;;;;;;5011829;28;20466;-75
2022/09/05 01:37:04;;;;;;;3.22;2.70;;;17.10;99.90;;;;;;5045272;28;20397;-75
2022/09/05 01:39:56;;;;;;;3.50;3.20;;;17.00;99.90;;;;;;5022010;28;20405;-75
2022/09/05 01:42:35;;;;;;;3.78;3.03;;;17.00;99.90;;;;;;5019535;28;20490;-75
2022/09/05 01:45:18;;;;;;;3.35;3.00;;;16.90;99.90;;;;;;5039697;28;20914;-75
2022/09/05 01:47:55;;;;;;;3.80;2.90;;;16.90;99.90;;;;;;5037135;28;20415;-75
2022/09/05 01:50:42;;;;;;;3.20;3.00;;;16.90;99.90;;;;;;5043111;28;20403;-75
2022/09/05 01:53:26;;;;;;;3.75;2.97;;;16.90;99.90;;;;;;5023707;28;20424;-74
2022/09/05 01:56:21;;;;;;;2.83;2.63;;;16.80;99.90;;;;;;5047757;28;20417;-75
2022/09/05 01:59:07;;;;;;;3.88;2.50;;;16.80;99.90;;;;;;5011966;28;20407;-75
2022/09/05 02:02:00;;;;;;;4.18;3.17;;;16.70;99.90;;;;;;5012094;28;20391;-75
2022/09/05 02:04:44;;;;;;;3.50;2.85;;;16.80;99.90;;;;;;5036122;28;20433;-75
2022/09/05 02:07:44;;;;;;;3.15;2.85;;;16.80;99.90;;;;;;5042797;28;20405;-75
2022/09/05 02:10:37;;;;;;;5.70;2.70;;;16.70;99.90;;;;;;5006800;28;20497;-75
2022/09/05 02:13:11;;;;;;;2.90;2.67;;;16.70;99.90;;;;;;5033167;28;20402;-75
2022/09/05 02:15:43;;;;;;;4.20;2.97;;;16.70;99.90;;;;;;5037580;28;20477;-75
2022/09/05 02:18:17;;;;;;;6.28;3.00;;;16.70;99.90;;;;;;5039504;28;20417;-75
2022/09/05 02:20:52;;;;;;;3.33;2.87;;;16.60;99.90;;;;;;5035623;28;20469;-74
2022/09/05 02:23:18;;;;;;;3.90;3.33;;;16.50;99.90;;;;;;5036669;28;20733;-74
2022/09/05 02:25:56;;;;;;;3.45;3.15;;;16.40;99.90;;;;;;5023140;28;20535;-75
2022/09/05 02:28:54;;;;;;;3.90;3.60;;;16.40;99.90;;;;;;5025477;28;20915;-74
2022/09/05 02:31:39;;;;;;;3.47;3.17;;;16.40;99.90;;;;;;5023333;28;20405;-75
2022/09/05 02:34:12;;;;;;;3.88;3.20;;;16.40;99.90;;;;;;5042507;28;20403;-75
2022/09/05 02:36:44;;;;;;;3.50;3.20;;;16.40;99.90;;;;;;5042444;28;20561;-74
2022/09/05 02:39:20;;;;;;;4.22;3.30;;;16.60;99.90;;;;;;5041507;28;20395;-74
2022/09/05 02:42:01;;;;;;;3.33;2.97;;;16.60;99.90;;;;;;5042226;28;20406;-74
2022/09/05 02:45:03;;;;;;;3.40;3.10;;;16.50;99.90;;;;;;5041761;28;20443;-75
2022/09/05 02:47:35;;;;;;;3.30;3.10;;;16.50;99.90;;;;;;5018579;28;20414;-74
2022/09/05 02:50:36;;;;;;;5.90;2.80;;;16.50;99.90;;;;;;5039266;28;20453;-75
2022/09/05 02:53:02;;;;;;;2.70;2.50;;;16.50;99.90;;;;;;4973687;28;20402;-74
2022/09/05 02:55:44;;;;;;;3.20;2.90;;;16.50;99.90;;;;;;5031816;28;20399;-74
2022/09/05 02:58:47;;;;;;;3.60;3.10;;;16.50;99.90;;;;;;5021346;28;20839;-74
2022/09/05 03:01:24;;;;;;;2.50;2.30;;;16.50;99.90;;;;;;5041690;28;20383;-74
2022/09/05 03:04:12;;;;;;;3.13;2.83;;;16.50;99.90;;;;;;5041718;28;20478;-75
2022/09/05 03:07:02;;;;;;;3.20;2.90;;;16.40;99.90;;;;;;5040476;28;20776;-75
2022/09/05 03:09:58;;;;;;;3.50;3.10;;;16.40;99.90;;;;;;5025114;28;20400;-75
2022/09/05 03:12:51;;;;;;;4.40;2.60;;;16.50;99.90;;;;;;5048256;28;20397;-75
2022/09/05 03:15:53;;;;;;;3.67;2.90;;;16.50;99.90;;;;;;5041132;28;20416;-74
2022/09/05 03:18:42;;;;;;;4.32;2.95;;;16.40;99.90;;;;;;5039857;28;20477;-75
2022/09/05 03:21:13;;;;;;;3.03;2.83;;;16.30;99.90;;;;;;5042516;28;20405;-75
2022/09/05 03:24:02;;;;;;;4.13;2.95;;;16.30;99.90;;;;;;5039237;28;20432;-74
2022/09/05 03:26:59;;;;;;;3.20;2.90;;;16.30;99.90;;;;;;5041211;28;20931;-74
2022/09/05 03:29:42;;;;;;;3.80;2.95;;;16.40;99.90;;;;;;5041129;28;20409;-75
2022/09/05 03:32:52;;;;;;;3.78;3.35;;;16.40;99.90;;;;;;5047120;28;20405;-74
2022/09/05 03:35:21;;;;;;;3.20;2.90;;;16.20;99.90;;;;;;5045464;28;20839;-75
2022/09/05 03:38:11;;;;;;;3.33;3.03;;;16.20;99.90;;;;;;5039065;28;20453;-75
2022/09/05 03:40:42;;;;;;;3.05;2.70;;;16.20;99.90;;;;;;5032108;28;20430;-74
2022/09/05 03:43:32;;;;;;;3.22;2.88;;;16.20;99.90;;;;;;5048391;28;20435;-75
2022/09/05 03:46:23;;;;;;;3.65;2.60;;;16.30;99.90;;;;;;5051790;28;20382;-75
2022/09/05 03:49:20;;;;;;;3.00;2.80;;;16.20;99.90;;;;;;5035149;28;20397;-75
2022/09/05 03:52:01;;;;;;;3.35;3.00;;;16.20;99.90;;;;;;5038953;28;20436;-75
2022/09/05 03:55:04;;;;;;;3.80;2.75;;;16.20;99.90;;;;;;5037045;28;20397;-75
2022/09/05 03:57:52;;;;;;;4.72;2.80;;;16.10;99.90;;;;;;5024228;28;20958;-74
2022/09/05 04:00:24;;;;;;;3.60;2.80;;;16.00;99.90;;;;;;5009246;28;20459;-74
2022/09/05 04:02:56;;;;;;;3.10;2.80;;;16.00;99.90;;;;;;5047812;28;20792;-73
2022/09/05 04:05:30;;;;;;;3.20;2.90;;;16.00;99.90;;;;;;5039782;28;20493;-75
2022/09/05 04:08:43;;;;;;;4.00;3.70;;;15.90;99.90;;;;;;5043846;28;20826;-73
2022/09/05 04:11:13;;;;;;;3.72;2.42;;;16.00;99.90;;;;;;5001864;28;20494;-73
2022/09/05 04:13:56;;;;;;;3.75;3.25;;;16.00;99.90;;;;;;5044031;28;20482;-73
2022/09/05 04:16:27;;;;;;;4.57;3.25;;;15.90;99.90;;;;;;5045398;28;20763;-75
2022/09/05 04:18:53;;;;;;;3.40;3.10;;;15.90;99.90;;;;;;5040339;28;20410;-73
2022/09/05 04:21:29;;;;;;;3.75;3.38;;;15.80;99.90;;;;;;5040114;28;20538;-73
2022/09/05 04:24:09;;;;;;;3.30;3.00;;;15.90;99.90;;;;;;5042857;28;20922;-73
2022/09/05 04:26:58;;;;;;;3.00;2.80;;;15.90;99.90;;;;;;5040879;28;20398;-73
2022/09/05 04:29:37;;;;;;;4.10;2.90;;;15.80;99.90;;;;;;5040425;28;20432;-73
2022/09/05 04:32:45;;;;;;;3.03;2.83;;;15.90;99.90;;;;;;5035950;28;20883;-73
2022/09/05 04:35:19;;;;;;;3.70;3.00;;;15.80;99.90;;;;;;4996761;28;20441;-73
2022/09/05 04:38:42;;;;;;;3.47;2.70;;;15.80;99.90;;;;;;5041560;28;20403;-73
2022/09/05 04:41:12;;;;;;;8.60;3.08;;;15.80;99.90;;;;;;4967959;28;20452;-73
2022/09/05 04:44:09;;;;;;;3.15;2.85;;;15.80;99.90;;;;;;4962805;28;20851;-73
2022/09/05 04:46:39;;;;;;;7.70;3.08;;;15.90;99.90;;;;;;5019910;28;20397;-73
2022/09/05 04:49:15;;;;;;;4.47;3.17;;;15.80;99.90;;;;;;5048548;28;20416;-73
2022/09/05 04:51:59;;;;;;;3.20;3.00;;;15.80;99.90;;;;;;5037814;28;20397;-74
2022/09/05 04:54:38;;;;;;;4.63;3.00;;;15.90;99.90;;;;;;5039463;28;20485;-73
2022/09/05 04:57:07;;;;;;;3.53;3.20;;;15.90;99.90;;;;;;5026798;28;20409;-73
2022/09/05 04:59:42;;;;;;;3.50;3.20;;;16.00;99.90;;;;;;5038719;28;20405;-73
2022/09/05 05:02:21;;;;;;;4.32;3.92;;;16.00;99.90;;;;;;5038537;28;20431;-73
2022/09/05 05:04:48;;;;;;;3.60;3.00;;;16.00;99.90;;;;;;5040541;28;20452;-73
2022/09/05 05:07:29;;;;;;;4.07;3.38;;;16.00;99.90;;;;;;5035672;28;20399;-73
2022/09/05 05:09:58;;;;;;;3.25;2.97;;;16.00;99.90;;;;;;5025422;28;20401;-73
2022/09/05 05:12:47;;;;;;;3.42;3.13;;;16.10;99.90;;;;;;5040220;28;20385;-73
2022/09/05 05:15:17;;;;;;;3.28;3.03;;;16.00;99.90;;;;;;5028071;28;20440;-73
2022/09/05 05:17:55;;;;;;;3.67;3.37;;;16.00;99.90;;;;;;5021680;28;20907;-73
2022/09/05 05:20:23;;;;;;;3.20;2.90;;;15.90;99.90;;;;;;5049932;28;20389;-73
2022/09/05 05:23:04;;;;;;;3.63;3.13;;;15.90;99.90;;;;;;5041104;28;20483;-73
2022/09/05 05:25:33;;;;;;;3.53;2.90;;;15.80;99.90;;;;;;5011506;28;20413;-74
2022/09/05 05:28:20;;;;;;;3.20;2.90;;;15.80;99.90;;;;;;5030018;28;20383;-73
2022/09/05 05:30:46;;;;;;;4.70;3.00;;;15.80;99.90;;;;;;5012412;28;20916;-74
2022/09/05 05:33:24;;;;;;;4.75;3.00;;;15.90;99.90;;;;;;5011229;28;20402;-73
2022/09/05 05:35:51;;;;;;;5.75;4.00;;;15.90;99.90;;;;;;5040008;28;20402;-74
2022/09/05 05:38:16;;;;;;;4.00;3.00;;;15.90;99.90;;;;;;5041798;28;20394;-72
2022/09/05 05:40:53;;;;;;;3.40;3.10;;;15.80;99.90;;;;;;5041885;28;20465;-71
2022/09/05 05:43:24;;;;;;;3.10;2.90;;;15.90;99.90;;;;;;5046108;28;20489;-71
2022/09/05 05:45:59;;;;;;;3.30;3.00;;;15.90;99.90;;;;;;5039457;28;20411;-72
2022/09/05 05:48:36;;;;;;;3.58;3.20;;;16.00;99.90;;;;;;5030679;28;20968;-71
2022/09/05 05:51:06;;;;;;;4.70;3.47;;;16.00;99.90;;;;;;5049978;28;20409;-71
2022/09/05 05:54:09;;;;;;;3.35;3.10;;;16.00;99.90;;;;;;5049680;28;20385;-73
2022/09/05 05:56:46;;;;;;;3.60;3.30;;;15.90;99.90;;;;;;5034678;28;20426;-72
2022/09/05 05:59:37;;;;;;;3.40;3.10;;;15.90;99.90;;;;;;5035213;28;20451;-72
2022/09/05 06:02:38;;;;;;;5.07;3.05;;;16.00;99.90;;;;;;5036144;28;20393;-75
2022/09/05 06:05:18;;;;;;;4.07;3.67;;;16.00;99.90;;;;;;5039166;28;20449;-74
2022/09/05 06:08:21;;;;;;;3.50;3.20;;;16.00;99.90;;;;;;5045507;28;20388;-74
2022/09/05 06:11:02;;;;;;;4.10;3.10;;;16.00;99.90;;;;;;5037390;28;20936;-74
2022/09/05 06:13:58;;;;;;;3.55;3.25;;;16.20;99.90;;;;;;5035272;28;20480;-74
2022/09/05 06:16:36;;;;;;;3.50;3.20;;;16.10;99.90;;;;;;5036277;28;20802;-74
2022/09/05 06:19:52;;;;;;;3.55;3.22;;;16.30;99.90;;;;;;5050455;28;20403;-74
2022/09/05 06:22:48;;;;;;;3.50;3.20;;;16.50;99.90;;;;;;4997968;28;20403;-74
2022/09/05 06:25:28;;;;;;;3.90;3.15;;;16.50;99.90;;;;;;5036022;28;20413;-74
2022/09/05 06:28:29;;;;;;;4.78;3.20;;;16.50;99.90;;;;;;5048925;28;20389;-74
2022/09/05 06:31:07;;;;;;;3.05;2.85;;;16.60;99.90;;;;;;5042481;28;20490;-75
2022/09/05 06:33:51;;;;;;;3.63;3.33;;;16.60;99.90;;;;;;5045039;28;20452;-74
2022/09/05 06:36:19;;;;;;;3.60;3.30;;;16.80;99.90;;;;;;5032361;28;20449;-75
2022/09/05 06:39:12;;;;;;;3.90;2.90;;;16.80;99.90;;;;;;5041665;28;20428;-75
2022/09/05 06:41:43;;;;;;;4.15;3.03;;;17.00;99.90;;;;;;5051957;28;20420;-75
2022/09/05 06:44:35;;;;;;;3.60;2.90;;;17.10;99.90;;;;;;5047922;28;20432;-75
2022/09/05 06:47:06;;;;;;;2.97;2.70;;;17.20;99.90;;;;;;5030483;28;20399;-75
2022/09/05 06:50:06;;;;;;;4.05;2.92;;;17.30;99.90;;;;;;5040236;28;20400;-75
2022/09/05 06:53:16;;;;;;;3.90;3.10;;;17.40;99.90;;;;;;5032741;28;20928;-74
2022/09/05 06:55:59;;;;;;;3.05;2.72;;;17.50;99.90;;;;;;5041463;28;20416;-75
2022/09/05 06:59:03;;;;;;;3.40;3.10;;;17.50;99.90;;;;;;5040276;28;20916;-75
2022/09/05 07:01:33;;;;;;;2.88;2.67;;;17.60;99.90;;;;;;5052553;28;20381;-76
2022/09/05 07:04:32;;;;;;;3.78;2.70;;;17.80;99.90;;;;;;5022303;28;20442;-75
2022/09/05 07:07:43;;;;;;;3.00;2.70;;;17.90;99.90;;;;;;5043456;28;20810;-75
2022/09/05 07:10:20;;;;;;;3.40;3.10;;;17.90;99.90;;;;;;5003255;28;20425;-75
2022/09/05 07:13:01;;;;;;;3.40;2.80;;;18.10;99.90;;;;;;5047427;28;20408;-75
2022/09/05 07:15:54;;;;;;;4.30;2.80;;;18.10;99.90;;;;;;5031030;28;20436;-75
2022/09/05 07:18:33;;;;;;;3.90;2.53;;;18.30;99.90;;;;;;5039930;28;20409;-75
2022/09/05 07:21:10;;;;;;;3.13;2.80;;;18.50;99.90;;;;;;5048471;28;20408;-75
2022/09/05 07:23:47;;;;;;;3.90;3.00;;;18.60;99.90;;;;;;5043335;28;20473;-75
2022/09/05 07:26:15;;;;;;;3.20;2.90;;;18.60;99.90;;;;;;5034655;28;20800;-75
2022/09/05 07:28:42;;;;;;;2.80;2.60;;;18.80;99.90;;;;;;5026559;28;20408;-75
2022/09/05 07:31:15;;;;;;;3.28;2.97;;;18.90;99.90;;;;;;5042080;28;20398;-76
2022/09/05 07:33:44;;;;;;;3.70;3.30;;;19.10;99.90;;;;;;5041811;28;20415;-75
2022/09/05 07:36:15;;;;;;;3.20;2.90;;;19.30;99.90;;;;;;5042018;28;20408;-75
2022/09/05 07:38:42;;;;;;;4.28;3.25;;;19.30;99.90;;;;;;5033524;28;20418;-75
2022/09/05 07:41:22;;;;;;;3.40;3.10;;;19.40;99.90;;;;;;5038938;28;20399;-75
2022/09/05 07:43:53;;;;;;;3.40;3.10;;;19.50;99.90;;;;;;5019480;28;20791;-74
2022/09/05 07:46:33;;;;;;;5.20;3.35;;;19.70;99.90;;;;;;5040646;28;20455;-74
2022/09/05 07:49:05;;;;;;;2.97;2.78;;;19.90;99.90;;;;;;5037551;28;20888;-74
2022/09/05 07:51:34;;;;;;;5.00;2.90;;;19.90;99.90;;;;;;5044218;28;20899;-75
2022/09/05 07:54:23;;;;;;;3.70;2.80;;;19.90;99.90;;;;;;5037457;28;20418;-75
2022/09/05 07:56:53;;;;;;;3.50;3.10;;;20.00;99.90;;;;;;5041528;28;20418;-75
2022/09/05 07:59:21;;;;;;;4.43;3.00;;;20.10;99.90;;;;;;5046993;28;20390;-75
2022/09/05 08:01:51;;;;;;;2.85;2.60;;;20.10;99.90;;;;;;5017972;28;20414;-75
2022/09/05 08:04:24;;;;;;;3.65;3.20;;;20.10;99.90;;;;;;5042836;28;20428;-75
2022/09/05 08:06:52;;;;;;;3.00;2.80;;;20.20;99.90;;;;;;5044732;28;20402;-75
2022/09/05 08:09:25;;;;;;;3.10;2.80;;;20.30;99.90;;;;;;5034981;28;20749;-75
2022/09/05 08:11:55;;;;;;;3.50;3.05;;;20.30;99.90;;;;;;5048583;28;20406;-74
2022/09/05 08:14:42;;;;;;;3.63;2.65;;;20.60;99.90;;;;;;5017987;28;20398;-75
2022/09/05 08:17:20;;;;;;;4.83;3.10;;;20.80;99.90;;;;;;5037851;28;20893;-75
2022/09/05 08:20:06;;;;;;;3.42;2.60;;;20.80;99.90;;;;;;5040088;28;20397;-75
2022/09/05 08:22:56;;;;;;;3.10;2.90;;;20.80;99.90;;;;;;5041426;28;20432;-75
2022/09/05 08:25:35;;;;;;;3.17;2.97;;;20.90;99.90;;;;;;5020031;28;20413;-76
2022/09/05 08:28:09;;;;;;;4.40;3.67;;;21.00;99.90;;;;;;5031026;28;20395;-74
2022/09/05 08:30:43;;;;;;;4.05;3.05;;;21.10;99.90;;;;;;5041759;28;20478;-73
2022/09/05 08:33:14;;;;;;;3.80;3.17;;;21.10;99.90;;;;;;5038986;28;20410;-74
2022/09/05 08:35:48;;;;;;;3.60;3.30;;;21.30;99.90;;;;;;5021166;28;20453;-73
2022/09/05 08:38:16;;;;;;;4.70;3.40;;;21.50;99.90;;;;;;5044939;28;20458;-73
2022/09/05 08:41:03;;;;;;;2.72;2.53;;;21.50;99.90;;;;;;5043325;28;20384;-72
2022/09/05 08:43:41;;;;;;;3.35;2.92;;;21.90;99.90;;;;;;5030571;28;20478;-72
2022/09/05 08:46:13;;;;;;;3.17;2.97;;;22.10;99.90;;;;;;5039700;28;20429;-71
2022/09/05 08:48:58;;;;;;;3.23;2.70;;;22.20;99.90;;;;;;5050421;28;20840;-72
2022/09/05 08:51:37;;;;;;;3.15;2.85;;;22.30;99.90;;;;;;5032013;28;20426;-71
2022/09/05 08:54:32;;;;;;;3.45;3.15;;;22.20;99.90;;;;;;5030885;28;20401;-73
2022/09/05 08:56:58;;;;;;;4.97;3.05;;;22.40;99.90;;;;;;5046266;28;20393;-74
2022/09/05 08:59:48;;;;;;;6.28;5.63;;;22.50;99.90;;;;;;5042647;28;20456;-74
2022/09/05 09:02:35;;;;;;;3.40;2.83;;;22.50;99.90;;;;;;5053462;28;20392;-74
2022/09/05 09:05:12;;;;;;;3.65;3.22;;;22.40;99.90;;;;;;5040806;28;20438;-74
2022/09/05 09:07:43;;;;;;;4.05;3.15;;;22.50;99.90;;;;;;5044264;28;20400;-74
2022/09/05 09:10:35;;;;;;;3.70;2.90;;;22.50;99.90;;;;;;5043723;28;20405;-73
2022/09/05 09:13:21;;;;;;;3.20;2.78;;;22.70;99.90;;;;;;5052547;28;20417;-73
2022/09/05 09:16:03;;;;;;;3.80;3.40;;;22.90;99.90;;;;;;5046796;28;20409;-74
2022/09/05 09:18:45;;;;;;;4.95;3.15;;;22.90;99.90;;;;;;5044420;28;20482;-75
2022/09/05 09:21:24;;;;;;;5.10;3.40;;;23.00;99.90;;;;;;5048312;28;20407;-73
2022/09/05 09:24:28;;;;;;;4.43;2.90;;;23.30;99.90;;;;;;5022255;28;20410;-72
2022/09/05 09:27:03;;;;;;;4.10;2.63;;;23.30;99.90;;;;;;4963448;28;20400;-73
2022/09/05 09:29:33;;;;;;;2.47;2.28;;;23.30;99.90;;;;;;4964596;28;20400;-73
2022/09/05 09:32:12;;;;;;;16.20;14.07;;;23.30;99.90;;;;;;5003922;28;20401;-73
2022/09/05 09:35:10;;;;;;;3.60;2.35;;;23.30;99.90;;;;;;5023721;28;20416;-73
2022/09/05 09:38:04;;;;;;;3.13;2.20;;;23.30;99.90;;;;;;5039344;28;20412;-73
2022/09/05 09:40:29;;;;;;;2.33;2.10;;;23.50;99.90;;;;;;5044448;28;21015;-73
2022/09/05 09:43:21;;;;;;;2.00;1.80;;;23.60;99.90;;;;;;5032416;28;20412;-73
2022/09/05 09:46:16;;;;;;;3.50;2.00;;;23.60;99.90;;;;;;5048133;28;20414;-72
2022/09/05 09:49:06;;;;;;;2.20;2.00;;;23.80;99.90;;;;;;5037323;28;20385;-72
2022/09/05 09:51:49;;;;;;;2.53;2.10;;;23.80;99.90;;;;;;5042447;28;20393;-72
2022/09/05 09:55:06;;;;;;;2.63;1.77;;;23.90;99.90;;;;;;5045893;28;20793;-73
2022/09/05 09:57:57;;;;;;;2.17;1.90;;;23.90;99.90;;;;;;5048660;28;21025;-72
2022/09/05 10:00:24;;;;;;;1.90;1.80;;;24.00;99.90;;;;;;5031545;28;20466;-72
2022/09/05 10:03:09;;;;;;;1.90;1.70;;;24.00;99.90;;;;;;5048119;28;20438;-74
2022/09/05 10:05:52;;;;;;;1.90;1.70;;;24.10;99.90;;;;;;5040536;28;20484;-73
2022/09/05 10:08:42;;;;;;;2.17;2.00;;;24.20;99.90;;;;;;5023567;28;20437;-73
2022/09/05 10:11:19;;;;;;;2.08;1.85;;;24.40;99.90;;;;;;5044229;28;20487;-73
2022/09/05 10:13:56;;;;;;;3.10;1.92;;;24.60;99.90;;;;;;5026504;28;20506;-72
2022/09/05 10:16:25;;;;;;;2.05;1.85;;;24.80;99.90;;;;;;5024777;28;20470;-73
2022/09/05 10:19:28;;;;;;;2.55;1.65;;;25.00;97.80;;;;;;5044736;28;20407;-73
2022/09/05 10:22:31;;;;;;;1.88;1.77;;;25.00;99.90;;;;;;5047633;28;20439;-73
2022/09/05 10:25:06;;;;;;;1.80;1.70;;;25.30;99.90;;;;;;5026260;28;20998;-72
2022/09/05 10:27:37;;;;;;;1.80;1.70;;;25.50;99.90;;;;;;5040013;28;20397;-73
2022/09/05 10:30:22;;;;;;;4.40;2.00;;;25.50;97.10;;;;;;5046809;28;20404;-73
2022/09/05 10:32:56;;;;;;;1.80;1.50;;;25.50;97.20;;;;;;5052463;28;20475;-73
2022/09/05 10:35:40;;;;;;;2.50;2.00;;;25.80;96.00;;;;;;5042855;28;20434;-73
2022/09/05 10:38:19;;;;;;;2.88;1.67;;;26.00;95.40;;;;;;5048735;28;20413;-73
2022/09/05 10:40:49;;;;;;;1.70;1.60;;;26.10;94.00;;;;;;5046662;28;20390;-73
2022/09/05 10:43:24;;;;;;;2.10;1.80;;;26.10;93.70;;;;;;5042966;28;20766;-73
2022/09/05 10:45:56;;;;;;;1.95;1.75;;;26.00;93.00;;;;;;5020639;28;20476;-73
2022/09/05 10:48:25;;;;;;;1.90;1.60;;;25.80;94.00;;;;;;5044219;28;20405;-73
2022/09/05 10:51:19;;;;;;;3.00;2.03;;;25.90;94.80;;;;;;5042465;28;20405;-72
2022/09/05 10:54:09;;;;;;;1.70;1.60;;;26.20;93.20;;;;;;5048320;28;20404;-72
2022/09/05 10:56:45;;;;;;;2.40;1.70;;;26.40;92.80;;;;;;5043539;28;20407;-73
2022/09/05 10:59:38;;;;;;;1.80;1.70;;;26.50;92.60;;;;;;5039536;28;20551;-71
2022/09/05 11:02:06;;;;;;;2.30;2.10;;;26.40;92.20;;;;;;5037001;28;20403;-70
2022/09/05 11:05:05;;;;;;;1.67;1.58;;;26.40;92.70;;;;;;5044677;28;20777;-70
2022/09/05 11:08:01;;;;;;;2.08;1.88;;;26.30;92.20;;;;;;5024148;28;20838;-71
2022/09/05 11:10:32;;;;;;;1.88;1.77;;;26.50;92.90;;;;;;5045036;28;20481;-70
2022/09/05 11:13:07;;;;;;;2.40;2.10;;;26.50;95.40;;;;;;5027307;28;20943;-71
2022/09/05 11:16:12;;;;;;;3.10;2.00;;;26.60;91.80;;;;;;5041030;28;20911;-71
2022/09/05 11:18:58;;;;;;;1.70;1.60;;;26.80;93.80;;;;;;5009852;28;20425;-71
2022/09/05 11:21:47;;;;;;;2.67;1.60;;;26.60;89.50;;;;;;5042955;28;20405;-71
2022/09/05 11:24:44;;;;;;;3.28;1.90;;;26.60;90.70;;;;;;5026310;28;20464;-70
2022/09/05 11:27:24;;;;;;;3.20;1.80;;;26.70;90.40;;;;;;5039439;28;20812;-71
2022/09/05 11:30:00;;;;;;;2.40;1.50;;;26.60;90.80;;;;;;5040713;28;20488;-71
2022/09/05 11:32:43;;;;;;;2.17;1.90;;;26.70;90.50;;;;;;5040271;28;20405;-71
2022/09/05 11:35:28;;;;;;;2.50;2.10;;;26.70;90.60;;;;;;5040720;28;20411;-70
2022/09/05 11:38:20;;;;;;;2.40;2.00;;;26.90;88.10;;;;;;5046936;28;21128;-71
2022/09/05 11:41:12;;;;;;;3.30;1.70;;;27.20;87.50;;;;;;5051553;28;20386;-72
2022/09/05 11:44:09;;;;;;;4.18;1.92;;;27.00;90.90;;;;;;5051698;28;20395;-72
2022/09/05 11:47:14;;;;;;;2.22;1.70;;;26.80;92.60;;;;;;5050993;28;20400;-72
2022/09/05 11:49:57;;;;;;;4.30;1.70;;;27.00;91.90;;;;;;5027099;28;20968;-71
2022/09/05 11:52:53;;;;;;;3.30;2.10;;;26.70;91.70;;;;;;5042961;28;20436;-72
2022/09/05 11:55:51;;;;;;;3.00;1.80;;;26.70;91.60;;;;;;5044550;28;20395;-71
2022/09/05 11:58:35;;;;;;;2.10;1.90;;;27.60;90.90;;;;;;5040613;28;20502;-71
2022/09/05 12:01:27;;;;;;;2.00;1.45;;;27.90;86.90;;;;;;5048623;28;20806;-71
2022/09/05 12:03:58;;;;;;;2.60;1.60;;;28.50;89.40;;;;;;4994862;28;20394;-71
2022/09/05 12:06:56;;;;;;;3.43;2.10;;;28.70;87.90;;;;;;5028419;28;20453;-71
2022/09/05 12:09:52;;;;;;;2.20;1.60;;;29.00;86.00;;;;;;5032435;28;20935;-71
2022/09/05 12:12:47;;;;;;;1.95;1.75;;;29.80;80.40;;;;;;5038442;28;20959;-70
2022/09/05 12:15:24;;;;;;;2.23;1.90;;;29.70;83.80;;;;;;5038358;28;20474;-73
2022/09/05 12:17:49;;;;;;;1.90;1.70;;;30.10;83.40;;;;;;5018409;28;20399;-73
2022/09/05 12:20:44;;;;;;;2.50;2.00;;;29.40;76.70;;;;;;5044481;28;20899;-73
2022/09/05 12:23:17;;;;;;;2.50;1.70;;;29.60;76.50;;;;;;5023455;28;20406;-73
2022/09/05 12:26:11;;;;;;;2.78;1.80;;;29.40;74.10;;;;;;5018513;28;20407;-73
2022/09/05 12:28:56;;;;;;;1.95;1.80;;;29.40;76.70;;;;;;5041751;28;20397;-73
2022/09/05 12:31:34;;;;;;;1.70;1.60;;;28.90;77.70;;;;;;5039399;28;20398;-74
2022/09/05 12:34:09;;;;;;;3.37;2.20;;;28.80;77.90;;;;;;5050322;28;20424;-73
2022/09/05 12:36:40;;;;;;;1.70;1.60;;;28.40;81.30;;;;;;5033564;28;20410;-73
2022/09/05 12:39:24;;;;;;;2.35;1.83;;;28.50;81.30;;;;;;5017877;28;20443;-74
2022/09/05 12:42:00;;;;;;;2.20;2.00;;;28.50;79.20;;;;;;5014175;28;20402;-73
2022/09/05 12:44:53;;;;;;;1.80;1.70;;;28.80;80.30;;;;;;5041815;28;20825;-74
2022/09/05 12:47:21;;;;;;;5.25;1.90;;;28.50;84.10;;;;;;5043498;28;20447;-73
2022/09/05 12:49:55;;;;;;;2.58;1.95;;;29.00;84.30;;;;;;5041806;28;20404;-73
2022/09/05 12:52:34;;;;;;;2.70;1.80;;;28.90;80.40;;;;;;5034524;28;20448;-73
2022/09/05 12:55:22;;;;;;;1.73;1.63;;;29.40;82.00;;;;;;5040487;28;20434;-73
2022/09/05 12:57:54;;;;;;;1.80;1.70;;;29.20;77.80;;;;;;5023755;28;20484;-72
2022/09/05 13:00:22;;;;;;;1.63;1.50;;;29.30;82.50;;;;;;5049616;28;20417;-73
2022/09/05 13:03:12;;;;;;;2.17;1.65;;;29.60;83.70;;;;;;5037815;28;20913;-73
2022/09/05 13:06:07;;;;;;;2.28;1.67;;;29.50;80.40;;;;;;5016485;28;20413;-72
2022/09/05 13:08:46;;;;;;;3.35;1.95;;;29.50;79.20;;;;;;5017694;28;20421;-73
2022/09/05 13:11:16;;;;;;;1.80;1.60;;;29.60;83.30;;;;;;5045191;28;20483;-73
2022/09/05 13:13:48;;;;;;;2.00;1.90;;;29.60;80.30;;;;;;5037026;28;20410;-73
2022/09/05 13:16:19;;;;;;;1.92;1.70;;;29.90;82.00;;;;;;5038440;28;20774;-73
2022/09/05 13:18:45;;;;;;;2.55;1.80;;;30.10;79.50;;;;;;5030083;28;20557;-72
2022/09/05 13:21:24;;;;;;;2.20;2.00;;;30.10;78.20;;;;;;5012668;28;20785;-73
2022/09/05 13:24:14;;;;;;;1.77;1.67;;;30.10;75.80;;;;;;5029826;28;20780;-72
2022/09/05 13:26:53;;;;;;;3.10;2.03;;;30.30;74.50;;;;;;5031705;28;20387;-73
2022/09/05 13:29:23;;;;;;;2.15;1.65;;;30.20;72.30;;;;;;5036604;28;20425;-73
2022/09/05 13:31:52;;;;;;;1.85;1.65;;;30.10;73.80;;;;;;5041771;28;20770;-73
2022/09/05 13:34:30;;;;;;;2.30;2.10;;;30.20;73.30;;;;;;5027477;28;20389;-73
2022/09/05 13:37:17;;;;;;;2.20;1.90;;;29.90;74.00;;;;;;5042459;28;20406;-73
2022/09/05 13:40:08;;;;;;;2.63;1.73;;;30.20;76.90;;;;;;5040155;28;20446;-72
2022/09/05 13:42:43;;;;;;;3.25;1.90;;;30.40;74.70;;;;;;5048187;28;20507;-73
2022/09/05 13:45:17;;;;;;;2.17;1.60;;;30.60;72.70;;;;;;5046531;28;20454;-73
2022/09/05 13:47:57;;;;;;;4.00;1.85;;;30.70;70.80;;;;;;5041548;28;20453;-73
2022/09/05 13:50:48;;;;;;;2.65;1.52;;;30.80;74.10;;;;;;5048442;28;20406;-73
2022/09/05 13:53:50;;;;;;;2.70;1.60;;;30.00;71.70;;;;;;5031713;28;20391;-73
2022/09/05 13:56:23;;;;;;;1.90;1.70;;;30.30;69.50;;;;;;5046754;28;20396;-73
2022/09/05 13:58:58;;;;;;;1.70;1.60;;;30.60;68.20;;;;;;5038644;28;20400;-72
2022/09/05 14:01:43;;;;;;;1.90;1.80;;;30.70;64.70;;;;;;5029361;28;20391;-73
2022/09/05 14:04:19;;;;;;;1.85;1.50;;;30.30;65.10;;;;;;5028866;28;20915;-72
2022/09/05 14:06:55;;;;;;;1.90;1.80;;;30.50;65.00;;;;;;5029343;28;20397;-73